sensor_id;sensor_type;location;lat;lon;timestamp;temperature;humidity
45283;DHT22;31023;44.994;1.796;2022-07-29T00:00:40;20.70;72.70
45283;DHT22;31023;44.994;1.796;2022-07-29T00:03:06;20.80;72.80
45283;DHT22;31023;44.994;1.796;2022-07-29T00:05:31;20.80;72.50
45283;DHT22;31023;44.994;1.796;2022-07-29T00:07:57;20.70;72.60
45283;DHT22;31023;44.994;1.796;2022-07-29T00:10:23;20.60;73.10
45283;DHT22;31023;44.994;1.796;2022-07-29T00:12:48;20.60;73.80
45283;DHT22;31023;44.994;1.796;2022-07-29T00:15:14;20.60;73.90
45283;DHT22;31023;44.994;1.796;2022-07-29T00:17:40;20.60;73.50
45283;DHT22;31023;44.994;1.796;2022-07-29T00:20:06;20.60;73.30
45283;DHT22;31023;44.994;1.796;2022-07-29T00:22:32;20.40;73.90
45283;DHT22;31023;44.994;1.796;2022-07-29T00:24:58;20.40;74.10
45283;DHT22;31023;44.994;1.796;2022-07-29T00:27:24;20.40;74.30
45283;DHT22;31023;44.994;1.796;2022-07-29T00:29:49;20.40;74.00
45283;DHT22;31023;44.994;1.796;2022-07-29T00:32:15;20.40;74.30
45283;DHT22;31023;44.994;1.796;2022-07-29T00:34:41;20.30;74.80
45283;DHT22;31023;44.994;1.796;2022-07-29T00:37:25;20.40;74.80
45283;DHT22;31023;44.994;1.796;2022-07-29T00:39:51;20.30;74.80
45283;DHT22;31023;44.994;1.796;2022-07-29T00:42:17;20.40;74.60
45283;DHT22;31023;44.994;1.796;2022-07-29T00:44:43;20.30;74.90
45283;DHT22;31023;44.994;1.796;2022-07-29T00:47:12;20.30;75.30
45283;DHT22;31023;44.994;1.796;2022-07-29T00:49:39;20.20;75.10
45283;DHT22;31023;44.994;1.796;2022-07-29T00:52:06;20.30;75.60
45283;DHT22;31023;44.994;1.796;2022-07-29T00:54:33;20.30;75.50
45283;DHT22;31023;44.994;1.796;2022-07-29T00:57:00;20.30;76.40
45283;DHT22;31023;44.994;1.796;2022-07-29T00:59:28;20.40;75.90
45283;DHT22;31023;44.994;1.796;2022-07-29T01:01:55;20.30;76.10
45283;DHT22;31023;44.994;1.796;2022-07-29T01:04:23;20.30;76.30
45283;DHT22;31023;44.994;1.796;2022-07-29T01:06:49;20.30;76.50
45283;DHT22;31023;44.994;1.796;2022-07-29T01:09:17;20.30;76.70
45283;DHT22;31023;44.994;1.796;2022-07-29T01:11:43;20.30;76.80
45283;DHT22;31023;44.994;1.796;2022-07-29T01:14:11;20.20;77.50
45283;DHT22;31023;44.994;1.796;2022-07-29T01:16:43;20.30;77.40
45283;DHT22;31023;44.994;1.796;2022-07-29T01:25:17;20.30;78.40
45283;DHT22;31023;44.994;1.796;2022-07-29T01:30:13;20.10;79.50
45283;DHT22;31023;44.994;1.796;2022-07-29T01:32:41;20.00;80.40
45283;DHT22;31023;44.994;1.796;2022-07-29T01:35:33;19.90;80.60
45283;DHT22;31023;44.994;1.796;2022-07-29T01:38:09;19.90;81.20
45283;DHT22;31023;44.994;1.796;2022-07-29T01:40:46;19.90;81.20
45283;DHT22;31023;44.994;1.796;2022-07-29T01:43:23;19.90;81.60
45283;DHT22;31023;44.994;1.796;2022-07-29T01:48:40;19.80;82.10
45283;DHT22;31023;44.994;1.796;2022-07-29T01:51:21;19.70;83.10
45283;DHT22;31023;44.994;1.796;2022-07-29T01:53:57;19.60;83.70
45283;DHT22;31023;44.994;1.796;2022-07-29T01:56:28;19.60;84.00
45283;DHT22;31023;44.994;1.796;2022-07-29T01:58:57;19.60;84.10
45283;DHT22;31023;44.994;1.796;2022-07-29T02:01:23;19.50;84.70
45283;DHT22;31023;44.994;1.796;2022-07-29T02:03:49;19.50;85.30
45283;DHT22;31023;44.994;1.796;2022-07-29T02:06:19;19.50;85.40
45283;DHT22;31023;44.994;1.796;2022-07-29T02:08:47;19.40;85.80
45283;DHT22;31023;44.994;1.796;2022-07-29T02:11:14;19.30;86.30
45283;DHT22;31023;44.994;1.796;2022-07-29T02:13:41;19.30;86.80
45283;DHT22;31023;44.994;1.796;2022-07-29T02:16:06;19.30;87.40
45283;DHT22;31023;44.994;1.796;2022-07-29T02:18:36;19.30;87.50
45283;DHT22;31023;44.994;1.796;2022-07-29T02:21:03;19.20;88.30
45283;DHT22;31023;44.994;1.796;2022-07-29T02:23:31;19.30;88.90
45283;DHT22;31023;44.994;1.796;2022-07-29T02:25:59;19.20;89.20
45283;DHT22;31023;44.994;1.796;2022-07-29T02:28:29;19.20;89.70
45283;DHT22;31023;44.994;1.796;2022-07-29T02:30:59;19.00;90.30
45283;DHT22;31023;44.994;1.796;2022-07-29T02:33:26;19.00;90.40
45283;DHT22;31023;44.994;1.796;2022-07-29T02:35:53;19.00;90.80
45283;DHT22;31023;44.994;1.796;2022-07-29T02:38:21;19.10;91.20
45283;DHT22;31023;44.994;1.796;2022-07-29T02:41:12;19.10;91.70
45283;DHT22;31023;44.994;1.796;2022-07-29T02:43:40;19.10;92.30
45283;DHT22;31023;44.994;1.796;2022-07-29T02:46:13;19.00;93.00
45283;DHT22;31023;44.994;1.796;2022-07-29T02:48:48;19.20;92.60
45283;DHT22;31023;44.994;1.796;2022-07-29T02:51:27;19.10;92.80
45283;DHT22;31023;44.994;1.796;2022-07-29T02:53:57;19.10;93.10
45283;DHT22;31023;44.994;1.796;2022-07-29T02:56:28;19.10;93.10
45283;DHT22;31023;44.994;1.796;2022-07-29T02:58:58;19.00;93.50
45283;DHT22;31023;44.994;1.796;2022-07-29T03:01:25;19.00;93.70
45283;DHT22;31023;44.994;1.796;2022-07-29T03:03:54;18.90;94.60
45283;DHT22;31023;44.994;1.796;2022-07-29T03:06:21;18.90;95.20
45283;DHT22;31023;44.994;1.796;2022-07-29T03:08:48;19.00;95.50
45283;DHT22;31023;44.994;1.796;2022-07-29T03:11:14;19.00;95.60
45283;DHT22;31023;44.994;1.796;2022-07-29T03:13:41;19.00;96.20
45283;DHT22;31023;44.994;1.796;2022-07-29T03:16:07;19.00;96.80
45283;DHT22;31023;44.994;1.796;2022-07-29T03:18:34;19.00;96.70
45283;DHT22;31023;44.994;1.796;2022-07-29T03:21:00;19.10;96.40
45283;DHT22;31023;44.994;1.796;2022-07-29T03:23:26;19.20;95.80
45283;DHT22;31023;44.994;1.796;2022-07-29T03:25:54;19.10;96.30
45283;DHT22;31023;44.994;1.796;2022-07-29T03:28:20;19.10;96.80
45283;DHT22;31023;44.994;1.796;2022-07-29T03:30:46;19.00;97.30
45283;DHT22;31023;44.994;1.796;2022-07-29T03:33:12;19.10;97.40
45283;DHT22;31023;44.994;1.796;2022-07-29T03:35:38;19.10;97.30
45283;DHT22;31023;44.994;1.796;2022-07-29T03:38:04;18.90;97.40
45283;DHT22;31023;44.994;1.796;2022-07-29T03:40:56;18.90;97.30
45283;DHT22;31023;44.994;1.796;2022-07-29T03:43:25;18.90;97.40
45283;DHT22;31023;44.994;1.796;2022-07-29T03:45:55;18.70;98.20
45283;DHT22;31023;44.994;1.796;2022-07-29T03:48:24;18.60;98.30
45283;DHT22;31023;44.994;1.796;2022-07-29T03:50:51;18.50;98.30
45283;DHT22;31023;44.994;1.796;2022-07-29T03:53:17;18.60;98.40
45283;DHT22;31023;44.994;1.796;2022-07-29T03:55:45;18.60;98.30
45283;DHT22;31023;44.994;1.796;2022-07-29T03:58:14;18.60;98.50
45283;DHT22;31023;44.994;1.796;2022-07-29T04:00:41;18.70;98.10
45283;DHT22;31023;44.994;1.796;2022-07-29T04:03:08;18.60;98.40
45283;DHT22;31023;44.994;1.796;2022-07-29T04:05:34;18.70;98.30
45283;DHT22;31023;44.994;1.796;2022-07-29T04:08:00;18.70;98.50
45283;DHT22;31023;44.994;1.796;2022-07-29T04:10:26;18.60;98.60
45283;DHT22;31023;44.994;1.796;2022-07-29T04:12:52;18.60;99.10
45283;DHT22;31023;44.994;1.796;2022-07-29T04:15:18;18.60;98.70
45283;DHT22;31023;44.994;1.796;2022-07-29T04:17:44;18.60;98.70
45283;DHT22;31023;44.994;1.796;2022-07-29T04:20:10;18.70;98.50
45283;DHT22;31023;44.994;1.796;2022-07-29T04:22:39;18.80;98.00
45283;DHT22;31023;44.994;1.796;2022-07-29T04:25:04;18.80;97.90
45283;DHT22;31023;44.994;1.796;2022-07-29T04:27:30;18.80;98.00
45283;DHT22;31023;44.994;1.796;2022-07-29T04:29:56;18.70;98.60
45283;DHT22;31023;44.994;1.796;2022-07-29T04:32:22;18.50;99.30
45283;DHT22;31023;44.994;1.796;2022-07-29T04:34:47;18.40;99.90
45283;DHT22;31023;44.994;1.796;2022-07-29T04:37:13;18.50;99.90
45283;DHT22;31023;44.994;1.796;2022-07-29T04:39:39;18.40;99.90
45283;DHT22;31023;44.994;1.796;2022-07-29T04:42:04;18.30;99.90
45283;DHT22;31023;44.994;1.796;2022-07-29T04:44:30;18.30;99.90
45283;DHT22;31023;44.994;1.796;2022-07-29T04:46:56;18.40;99.90
45283;DHT22;31023;44.994;1.796;2022-07-29T04:49:23;18.60;99.90
45283;DHT22;31023;44.994;1.796;2022-07-29T04:51:48;18.70;99.90
45283;DHT22;31023;44.994;1.796;2022-07-29T04:54:14;18.80;99.90
45283;DHT22;31023;44.994;1.796;2022-07-29T04:56:40;18.90;99.90
45283;DHT22;31023;44.994;1.796;2022-07-29T04:59:07;18.90;99.90
45283;DHT22;31023;44.994;1.796;2022-07-29T05:01:32;19.00;99.90
45283;DHT22;31023;44.994;1.796;2022-07-29T05:03:58;18.90;99.90
45283;DHT22;31023;44.994;1.796;2022-07-29T05:06:24;18.90;99.90
45283;DHT22;31023;44.994;1.796;2022-07-29T05:08:49;18.90;99.80
45283;DHT22;31023;44.994;1.796;2022-07-29T05:11:15;18.90;99.90
45283;DHT22;31023;44.994;1.796;2022-07-29T05:13:41;19.00;99.90
45283;DHT22;31023;44.994;1.796;2022-07-29T05:16:08;18.90;99.90
45283;DHT22;31023;44.994;1.796;2022-07-29T05:18:33;18.90;99.90
45283;DHT22;31023;44.994;1.796;2022-07-29T05:20:59;18.90;99.90
45283;DHT22;31023;44.994;1.796;2022-07-29T05:23:25;18.90;99.90
45283;DHT22;31023;44.994;1.796;2022-07-29T05:25:50;18.60;99.90
45283;DHT22;31023;44.994;1.796;2022-07-29T05:28:16;18.80;99.90
45283;DHT22;31023;44.994;1.796;2022-07-29T05:30:42;18.80;99.90
45283;DHT22;31023;44.994;1.796;2022-07-29T05:33:09;18.80;99.90
45283;DHT22;31023;44.994;1.796;2022-07-29T05:35:35;18.70;99.90
45283;DHT22;31023;44.994;1.796;2022-07-29T05:38:02;18.60;99.90
45283;DHT22;31023;44.994;1.796;2022-07-29T05:40:28;18.30;99.90
45283;DHT22;31023;44.994;1.796;2022-07-29T05:42:54;18.20;99.90
45283;DHT22;31023;44.994;1.796;2022-07-29T05:45:20;18.30;99.90
45283;DHT22;31023;44.994;1.796;2022-07-29T05:47:45;18.50;99.90
45283;DHT22;31023;44.994;1.796;2022-07-29T05:50:11;18.60;99.90
45283;DHT22;31023;44.994;1.796;2022-07-29T05:52:37;18.60;99.90
45283;DHT22;31023;44.994;1.796;2022-07-29T05:55:02;18.30;99.90
45283;DHT22;31023;44.994;1.796;2022-07-29T05:57:30;18.10;99.90
45283;DHT22;31023;44.994;1.796;2022-07-29T05:59:56;18.10;99.90
45283;DHT22;31023;44.994;1.796;2022-07-29T06:02:22;18.20;99.90
45283;DHT22;31023;44.994;1.796;2022-07-29T06:04:48;18.50;99.90
45283;DHT22;31023;44.994;1.796;2022-07-29T06:07:14;18.60;99.90
45283;DHT22;31023;44.994;1.796;2022-07-29T06:09:41;18.70;99.90
45283;DHT22;31023;44.994;1.796;2022-07-29T06:12:07;18.90;99.90
45283;DHT22;31023;44.994;1.796;2022-07-29T06:14:33;18.90;99.90
45283;DHT22;31023;44.994;1.796;2022-07-29T06:16:59;18.80;99.90
45283;DHT22;31023;44.994;1.796;2022-07-29T06:19:25;19.00;99.90
45283;DHT22;31023;44.994;1.796;2022-07-29T06:21:51;19.00;99.90
45283;DHT22;31023;44.994;1.796;2022-07-29T06:24:16;19.00;99.90
45283;DHT22;31023;44.994;1.796;2022-07-29T06:26:43;19.10;99.90
45283;DHT22;31023;44.994;1.796;2022-07-29T06:29:09;19.10;99.90
45283;DHT22;31023;44.994;1.796;2022-07-29T06:31:38;19.30;99.90
45283;DHT22;31023;44.994;1.796;2022-07-29T06:34:04;19.40;99.90
45283;DHT22;31023;44.994;1.796;2022-07-29T06:36:30;19.20;99.90
45283;DHT22;31023;44.994;1.796;2022-07-29T06:38:56;19.30;99.90
45283;DHT22;31023;44.994;1.796;2022-07-29T06:41:22;19.30;99.90
45283;DHT22;31023;44.994;1.796;2022-07-29T06:43:48;19.40;99.90
45283;DHT22;31023;44.994;1.796;2022-07-29T06:46:17;19.30;99.90
45283;DHT22;31023;44.994;1.796;2022-07-29T06:48:44;19.20;99.90
45283;DHT22;31023;44.994;1.796;2022-07-29T06:51:10;19.20;99.90
45283;DHT22;31023;44.994;1.796;2022-07-29T06:53:37;19.10;99.90
45283;DHT22;31023;44.994;1.796;2022-07-29T06:56:04;18.90;99.90
45283;DHT22;31023;44.994;1.796;2022-07-29T06:58:30;18.60;99.90
45283;DHT22;31023;44.994;1.796;2022-07-29T07:00:57;18.60;99.90
45283;DHT22;31023;44.994;1.796;2022-07-29T07:03:23;18.80;99.90
45283;DHT22;31023;44.994;1.796;2022-07-29T07:05:49;18.70;99.90
45283;DHT22;31023;44.994;1.796;2022-07-29T07:08:15;18.70;99.90
45283;DHT22;31023;44.994;1.796;2022-07-29T07:10:42;19.00;99.90
45283;DHT22;31023;44.994;1.796;2022-07-29T07:13:08;19.00;99.90
45283;DHT22;31023;44.994;1.796;2022-07-29T07:15:35;18.90;99.90
45283;DHT22;31023;44.994;1.796;2022-07-29T07:18:00;19.00;99.90
45283;DHT22;31023;44.994;1.796;2022-07-29T07:20:26;19.30;99.90
45283;DHT22;31023;44.994;1.796;2022-07-29T07:22:51;19.70;99.90
45283;DHT22;31023;44.994;1.796;2022-07-29T07:25:17;19.90;99.90
45283;DHT22;31023;44.994;1.796;2022-07-29T07:27:46;20.10;99.90
45283;DHT22;31023;44.994;1.796;2022-07-29T07:30:12;20.10;99.90
45283;DHT22;31023;44.994;1.796;2022-07-29T07:32:38;20.10;99.90
45283;DHT22;31023;44.994;1.796;2022-07-29T07:35:06;19.90;99.90
45283;DHT22;31023;44.994;1.796;2022-07-29T07:37:32;19.80;99.90
45283;DHT22;31023;44.994;1.796;2022-07-29T07:39:58;19.90;99.90
45283;DHT22;31023;44.994;1.796;2022-07-29T07:42:24;20.20;99.90
45283;DHT22;31023;44.994;1.796;2022-07-29T07:44:50;21.80;99.80
45283;DHT22;31023;44.994;1.796;2022-07-29T07:47:16;25.20;91.60
45283;DHT22;31023;44.994;1.796;2022-07-29T07:49:54;28.30;79.60
45283;DHT22;31023;44.994;1.796;2022-07-29T07:52:21;30.50;68.30
45283;DHT22;31023;44.994;1.796;2022-07-29T07:54:46;28.80;68.70
45283;DHT22;31023;44.994;1.796;2022-07-29T07:57:13;29.10;69.30
45283;DHT22;31023;44.994;1.796;2022-07-29T07:59:39;30.40;63.30
45283;DHT22;31023;44.994;1.796;2022-07-29T08:02:05;28.10;67.80
45283;DHT22;31023;44.994;1.796;2022-07-29T08:04:32;29.40;66.30
45283;DHT22;31023;44.994;1.796;2022-07-29T08:07:00;30.30;63.70
45283;DHT22;31023;44.994;1.796;2022-07-29T08:09:27;32.70;60.70
45283;DHT22;31023;44.994;1.796;2022-07-29T08:11:53;32.70;58.40
45283;DHT22;31023;44.994;1.796;2022-07-29T08:14:20;27.60;64.70
45283;DHT22;31023;44.994;1.796;2022-07-29T08:16:45;26.00;68.70
45283;DHT22;31023;44.994;1.796;2022-07-29T08:19:11;25.50;72.00
45283;DHT22;31023;44.994;1.796;2022-07-29T08:21:37;26.30;70.50
45283;DHT22;31023;44.994;1.796;2022-07-29T08:24:03;27.40;68.50
45283;DHT22;31023;44.994;1.796;2022-07-29T08:26:47;29.10;64.70
45283;DHT22;31023;44.994;1.796;2022-07-29T08:29:13;31.30;62.20
45283;DHT22;31023;44.994;1.796;2022-07-29T08:31:39;31.40;59.40
45283;DHT22;31023;44.994;1.796;2022-07-29T08:34:05;31.10;60.20
45283;DHT22;31023;44.994;1.796;2022-07-29T08:36:31;29.60;61.20
45283;DHT22;31023;44.994;1.796;2022-07-29T08:38:58;27.90;65.00
45283;DHT22;31023;44.994;1.796;2022-07-29T08:41:24;28.90;66.10
45283;DHT22;31023;44.994;1.796;2022-07-29T08:43:50;32.60;58.40
45283;DHT22;31023;44.994;1.796;2022-07-29T08:46:18;29.80;59.00
45283;DHT22;31023;44.994;1.796;2022-07-29T08:48:44;27.30;64.20
45283;DHT22;31023;44.994;1.796;2022-07-29T08:51:14;26.50;67.10
45283;DHT22;31023;44.994;1.796;2022-07-29T08:53:42;26.10;68.00
45283;DHT22;31023;44.994;1.796;2022-07-29T08:56:11;26.80;67.40
45283;DHT22;31023;44.994;1.796;2022-07-29T08:58:39;26.70;68.00
45283;DHT22;31023;44.994;1.796;2022-07-29T09:01:06;26.60;68.80
45283;DHT22;31023;44.994;1.796;2022-07-29T09:03:33;26.20;69.80
45283;DHT22;31023;44.994;1.796;2022-07-29T09:06:01;25.70;71.80
45283;DHT22;31023;44.994;1.796;2022-07-29T09:08:27;25.50;72.70
45283;DHT22;31023;44.994;1.796;2022-07-29T09:10:54;25.40;73.30
45283;DHT22;31023;44.994;1.796;2022-07-29T09:13:21;25.10;73.70
45283;DHT22;31023;44.994;1.796;2022-07-29T09:15:48;25.20;73.30
45283;DHT22;31023;44.994;1.796;2022-07-29T09:18:34;25.30;72.80
45283;DHT22;31023;44.994;1.796;2022-07-29T09:21:02;25.10;74.60
45283;DHT22;31023;44.994;1.796;2022-07-29T09:24:07;25.00;75.30
45283;DHT22;31023;44.994;1.796;2022-07-29T09:26:36;24.80;77.30
45283;DHT22;31023;44.994;1.796;2022-07-29T09:29:08;24.60;77.90
45283;DHT22;31023;44.994;1.796;2022-07-29T09:31:37;24.30;80.30
45283;DHT22;31023;44.994;1.796;2022-07-29T09:34:04;24.30;82.40
45283;DHT22;31023;44.994;1.796;2022-07-29T09:36:30;25.80;81.80
45283;DHT22;31023;44.994;1.796;2022-07-29T09:38:59;25.50;78.10
45283;DHT22;31023;44.994;1.796;2022-07-29T09:41:26;25.80;76.90
45283;DHT22;31023;44.994;1.796;2022-07-29T09:43:56;25.80;76.90
45283;DHT22;31023;44.994;1.796;2022-07-29T09:46:24;26.70;74.20
45283;DHT22;31023;44.994;1.796;2022-07-29T09:49:09;28.00;71.10
45283;DHT22;31023;44.994;1.796;2022-07-29T09:51:36;29.70;68.60
45283;DHT22;31023;44.994;1.796;2022-07-29T09:54:08;30.90;66.10
45283;DHT22;31023;44.994;1.796;2022-07-29T09:56:46;33.50;60.70
45283;DHT22;31023;44.994;1.796;2022-07-29T09:59:13;34.30;57.40
45283;DHT22;31023;44.994;1.796;2022-07-29T10:01:39;34.90;57.40
45283;DHT22;31023;44.994;1.796;2022-07-29T10:04:05;32.40;57.60
45283;DHT22;31023;44.994;1.796;2022-07-29T10:06:31;32.30;58.60
45283;DHT22;31023;44.994;1.796;2022-07-29T10:09:09;30.60;60.60
45283;DHT22;31023;44.994;1.796;2022-07-29T10:11:35;29.50;62.50
45283;DHT22;31023;44.994;1.796;2022-07-29T10:14:02;28.40;64.10
45283;DHT22;31023;44.994;1.796;2022-07-29T10:16:29;27.50;65.30
45283;DHT22;31023;44.994;1.796;2022-07-29T10:18:58;27.60;65.50
45283;DHT22;31023;44.994;1.796;2022-07-29T10:21:25;27.50;66.70
45283;DHT22;31023;44.994;1.796;2022-07-29T10:23:52;27.30;67.00
45283;DHT22;31023;44.994;1.796;2022-07-29T10:26:19;26.90;67.70
45283;DHT22;31023;44.994;1.796;2022-07-29T10:28:45;26.80;67.90
45283;DHT22;31023;44.994;1.796;2022-07-29T10:31:19;26.70;68.60
45283;DHT22;31023;44.994;1.796;2022-07-29T10:37:06;27.10;69.20
45283;DHT22;31023;44.994;1.796;2022-07-29T10:44:42;26.80;69.20
45283;DHT22;31023;44.994;1.796;2022-07-29T10:47:08;27.00;69.20
45283;DHT22;31023;44.994;1.796;2022-07-29T10:49:56;26.90;69.00
45283;DHT22;31023;44.994;1.796;2022-07-29T10:52:22;26.50;70.30
45283;DHT22;31023;44.994;1.796;2022-07-29T10:54:50;26.70;70.50
45283;DHT22;31023;44.994;1.796;2022-07-29T10:59:44;26.10;72.90
45283;DHT22;31023;44.994;1.796;2022-07-29T11:04:58;26.20;73.00
45283;DHT22;31023;44.994;1.796;2022-07-29T11:07:25;26.00;72.70
45283;DHT22;31023;44.994;1.796;2022-07-29T11:15:18;25.40;76.10
45283;DHT22;31023;44.994;1.796;2022-07-29T11:20:44;25.60;76.70
45283;DHT22;31023;44.994;1.796;2022-07-29T11:29:02;25.20;78.80
45283;DHT22;31023;44.994;1.796;2022-07-29T11:31:38;25.20;78.90
45283;DHT22;31023;44.994;1.796;2022-07-29T11:44:59;25.10;80.90
45283;DHT22;31023;44.994;1.796;2022-07-29T11:47:31;25.00;82.20
45283;DHT22;31023;44.994;1.796;2022-07-29T11:49:59;25.50;80.60
45283;DHT22;31023;44.994;1.796;2022-07-29T11:52:39;25.70;80.90
45283;DHT22;31023;44.994;1.796;2022-07-29T11:55:19;25.90;78.70
45283;DHT22;31023;44.994;1.796;2022-07-29T12:02:57;25.60;74.70
45283;DHT22;31023;44.994;1.796;2022-07-29T12:05:31;25.60;73.80
45283;DHT22;31023;44.994;1.796;2022-07-29T12:08:08;25.70;75.10
45283;DHT22;31023;44.994;1.796;2022-07-29T12:10:34;25.70;74.60
45283;DHT22;31023;44.994;1.796;2022-07-29T12:13:00;25.40;74.10
45283;DHT22;31023;44.994;1.796;2022-07-29T12:15:26;25.40;75.30
45283;DHT22;31023;44.994;1.796;2022-07-29T12:17:52;25.20;75.80
45283;DHT22;31023;44.994;1.796;2022-07-29T12:20:28;25.20;76.30
45283;DHT22;31023;44.994;1.796;2022-07-29T12:22:55;25.10;76.10
45283;DHT22;31023;44.994;1.796;2022-07-29T12:25:23;24.90;77.00
45283;DHT22;31023;44.994;1.796;2022-07-29T12:27:59;25.10;76.70
45283;DHT22;31023;44.994;1.796;2022-07-29T12:30:35;25.00;75.80
45283;DHT22;31023;44.994;1.796;2022-07-29T12:33:01;24.40;77.10
45283;DHT22;31023;44.994;1.796;2022-07-29T12:35:27;24.60;76.40
45283;DHT22;31023;44.994;1.796;2022-07-29T12:37:52;24.90;75.80
45283;DHT22;31023;44.994;1.796;2022-07-29T12:40:20;24.90;75.70
45283;DHT22;31023;44.994;1.796;2022-07-29T12:45:32;25.10;73.60
45283;DHT22;31023;44.994;1.796;2022-07-29T12:47:58;25.20;73.70
45283;DHT22;31023;44.994;1.796;2022-07-29T12:50:24;24.70;72.20
45283;DHT22;31023;44.994;1.796;2022-07-29T12:52:50;24.40;73.30
45283;DHT22;31023;44.994;1.796;2022-07-29T12:58:05;23.90;74.80
45283;DHT22;31023;44.994;1.796;2022-07-29T13:00:30;24.10;74.70
45283;DHT22;31023;44.994;1.796;2022-07-29T13:02:58;23.90;74.20
45283;DHT22;31023;44.994;1.796;2022-07-29T13:05:24;23.80;74.50
45283;DHT22;31023;44.994;1.796;2022-07-29T13:08:13;23.60;76.10
45283;DHT22;31023;44.994;1.796;2022-07-29T13:10:39;23.90;75.40
45283;DHT22;31023;44.994;1.796;2022-07-29T13:13:10;23.70;75.10
45283;DHT22;31023;44.994;1.796;2022-07-29T13:15:41;23.80;75.70
45283;DHT22;31023;44.994;1.796;2022-07-29T13:18:46;23.90;75.30
45283;DHT22;31023;44.994;1.796;2022-07-29T13:21:15;24.00;75.00
45283;DHT22;31023;44.994;1.796;2022-07-29T13:23:41;23.80;75.60
45283;DHT22;31023;44.994;1.796;2022-07-29T13:26:08;23.80;75.80
45283;DHT22;31023;44.994;1.796;2022-07-29T13:28:34;23.60;75.70
45283;DHT22;31023;44.994;1.796;2022-07-29T13:31:01;23.50;76.00
45283;DHT22;31023;44.994;1.796;2022-07-29T13:33:27;23.40;79.40
45283;DHT22;31023;44.994;1.796;2022-07-29T13:35:52;23.30;81.40
45283;DHT22;31023;44.994;1.796;2022-07-29T13:38:18;23.00;84.10
45283;DHT22;31023;44.994;1.796;2022-07-29T13:40:44;23.40;82.50
45283;DHT22;31023;44.994;1.796;2022-07-29T13:43:10;23.60;82.50
45283;DHT22;31023;44.994;1.796;2022-07-29T13:45:36;23.30;83.30
45283;DHT22;31023;44.994;1.796;2022-07-29T13:48:02;23.60;83.70
45283;DHT22;31023;44.994;1.796;2022-07-29T13:50:28;23.90;84.00
45283;DHT22;31023;44.994;1.796;2022-07-29T13:52:54;24.20;84.00
45283;DHT22;31023;44.994;1.796;2022-07-29T13:55:20;24.20;85.80
45283;DHT22;31023;44.994;1.796;2022-07-29T13:57:45;24.30;85.60
45283;DHT22;31023;44.994;1.796;2022-07-29T14:00:12;24.70;85.70
45283;DHT22;31023;44.994;1.796;2022-07-29T14:02:38;25.10;83.60
45283;DHT22;31023;44.994;1.796;2022-07-29T14:05:07;25.50;80.90
45283;DHT22;31023;44.994;1.796;2022-07-29T14:07:33;25.70;77.70
45283;DHT22;31023;44.994;1.796;2022-07-29T14:09:59;25.40;76.40
45283;DHT22;31023;44.994;1.796;2022-07-29T14:12:24;25.10;74.30
45283;DHT22;31023;44.994;1.796;2022-07-29T14:14:50;25.00;76.10
45283;DHT22;31023;44.994;1.796;2022-07-29T14:17:16;25.00;75.90
45283;DHT22;31023;44.994;1.796;2022-07-29T14:19:42;25.10;76.00
45283;DHT22;31023;44.994;1.796;2022-07-29T14:22:08;25.00;74.60
45283;DHT22;31023;44.994;1.796;2022-07-29T14:24:35;24.90;75.30
45283;DHT22;31023;44.994;1.796;2022-07-29T14:27:02;24.70;74.60
45283;DHT22;31023;44.994;1.796;2022-07-29T14:29:28;24.80;75.00
45283;DHT22;31023;44.994;1.796;2022-07-29T14:31:53;24.60;73.70
45283;DHT22;31023;44.994;1.796;2022-07-29T14:34:19;24.50;74.80
45283;DHT22;31023;44.994;1.796;2022-07-29T14:36:45;24.60;75.00
45283;DHT22;31023;44.994;1.796;2022-07-29T14:39:10;24.60;75.30
45283;DHT22;31023;44.994;1.796;2022-07-29T14:41:36;24.70;74.20
45283;DHT22;31023;44.994;1.796;2022-07-29T14:44:02;24.80;75.90
45283;DHT22;31023;44.994;1.796;2022-07-29T14:46:28;24.90;74.40
45283;DHT22;31023;44.994;1.796;2022-07-29T14:48:53;24.70;74.50
45283;DHT22;31023;44.994;1.796;2022-07-29T14:51:19;24.70;74.80
45283;DHT22;31023;44.994;1.796;2022-07-29T14:53:45;25.00;75.70
45283;DHT22;31023;44.994;1.796;2022-07-29T14:56:11;24.90;74.20
45283;DHT22;31023;44.994;1.796;2022-07-29T14:58:36;24.90;73.70
45283;DHT22;31023;44.994;1.796;2022-07-29T15:01:03;24.90;74.20
45283;DHT22;31023;44.994;1.796;2022-07-29T15:03:29;24.90;73.40
45283;DHT22;31023;44.994;1.796;2022-07-29T15:05:55;24.80;72.80
45283;DHT22;31023;44.994;1.796;2022-07-29T15:08:21;24.60;72.40
45283;DHT22;31023;44.994;1.796;2022-07-29T15:10:46;24.70;73.70
45283;DHT22;31023;44.994;1.796;2022-07-29T15:13:12;24.90;74.00
45283;DHT22;31023;44.994;1.796;2022-07-29T15:15:38;24.80;72.90
45283;DHT22;31023;44.994;1.796;2022-07-29T15:18:04;24.70;73.00
45283;DHT22;31023;44.994;1.796;2022-07-29T15:20:30;24.70;73.30
45283;DHT22;31023;44.994;1.796;2022-07-29T15:22:56;24.50;72.40
45283;DHT22;31023;44.994;1.796;2022-07-29T15:25:23;24.70;71.80
45283;DHT22;31023;44.994;1.796;2022-07-29T15:27:49;24.70;72.50
45283;DHT22;31023;44.994;1.796;2022-07-29T15:30:15;24.60;71.60
45283;DHT22;31023;44.994;1.796;2022-07-29T15:32:43;24.60;73.20
45283;DHT22;31023;44.994;1.796;2022-07-29T15:35:09;24.60;73.20
45283;DHT22;31023;44.994;1.796;2022-07-29T15:37:38;24.60;72.30
45283;DHT22;31023;44.994;1.796;2022-07-29T15:40:05;24.60;71.60
45283;DHT22;31023;44.994;1.796;2022-07-29T15:42:31;24.60;72.10
45283;DHT22;31023;44.994;1.796;2022-07-29T15:44:57;24.80;73.70
45283;DHT22;31023;44.994;1.796;2022-07-29T15:47:22;24.70;72.40
45283;DHT22;31023;44.994;1.796;2022-07-29T15:49:48;24.60;72.40
45283;DHT22;31023;44.994;1.796;2022-07-29T15:52:16;24.40;72.20
45283;DHT22;31023;44.994;1.796;2022-07-29T15:54:42;24.50;72.70
45283;DHT22;31023;44.994;1.796;2022-07-29T15:57:08;24.50;72.10
45283;DHT22;31023;44.994;1.796;2022-07-29T15:59:33;24.50;72.90
45283;DHT22;31023;44.994;1.796;2022-07-29T16:02:00;24.50;72.50
45283;DHT22;31023;44.994;1.796;2022-07-29T16:04:26;24.40;72.00
45283;DHT22;31023;44.994;1.796;2022-07-29T16:06:52;24.60;73.40
45283;DHT22;31023;44.994;1.796;2022-07-29T16:09:18;24.50;73.70
45283;DHT22;31023;44.994;1.796;2022-07-29T16:11:44;24.60;73.50
45283;DHT22;31023;44.994;1.796;2022-07-29T16:14:16;24.60;73.60
45283;DHT22;31023;44.994;1.796;2022-07-29T16:16:42;24.60;74.00
45283;DHT22;31023;44.994;1.796;2022-07-29T16:19:08;24.40;73.80
45283;DHT22;31023;44.994;1.796;2022-07-29T16:21:34;24.40;73.50
45283;DHT22;31023;44.994;1.796;2022-07-29T16:24:01;24.40;73.20
45283;DHT22;31023;44.994;1.796;2022-07-29T16:26:27;24.40;73.50
45283;DHT22;31023;44.994;1.796;2022-07-29T16:28:53;24.50;73.80
45283;DHT22;31023;44.994;1.796;2022-07-29T16:31:19;24.60;72.60
45283;DHT22;31023;44.994;1.796;2022-07-29T16:33:48;24.50;73.20